createdAt,value
2023-01-30T00:01:44.500Z,8.25
2023-01-30T00:04:13.605Z,9.05
2023-01-30T00:06:41.586Z,8.98
2023-01-30T00:09:17.126Z,9.18
2023-01-30T00:11:44.131Z,8.07
2023-01-30T00:14:11.073Z,9.02
2023-01-30T00:16:38.031Z,8.85
2023-01-30T00:19:04.957Z,8.77
2023-01-30T00:21:31.914Z,8.50
2023-01-30T00:24:00.798Z,8.80
2023-01-30T00:26:27.737Z,8.88
2023-01-30T00:28:54.694Z,8.15
2023-01-30T00:31:21.599Z,8.73
2023-01-30T00:33:50.430Z,7.80
2023-01-30T00:36:17.386Z,8.27
2023-01-30T00:38:44.334Z,8.68
2023-01-30T00:41:13.148Z,8.32
2023-01-30T00:44:00.261Z,8.60
2023-01-30T00:46:52.937Z,8.23
2023-01-30T00:49:20.784Z,8.25
2023-01-30T00:51:48.844Z,8.38
2023-01-30T00:54:16.664Z,9.02
2023-01-30T00:56:43.704Z,7.60
2023-01-30T00:59:10.567Z,8.02
2023-01-30T01:01:37.907Z,8.20
2023-01-30T01:04:06.808Z,7.60
2023-01-30T01:06:33.681Z,8.13
2023-01-30T01:09:00.565Z,8.23
2023-01-30T01:11:27.522Z,8.63
2023-01-30T01:13:57.505Z,7.97
2023-01-30T01:16:25.583Z,7.75
2023-01-30T01:18:54.353Z,8.00
2023-01-30T01:21:22.678Z,8.10
2023-01-30T01:23:55.227Z,8.20
2023-01-30T01:26:23.055Z,8.38
2023-01-30T01:28:50.026Z,8.00
2023-01-30T01:31:18.250Z,8.63
2023-01-30T01:33:45.272Z,8.30
2023-01-30T01:36:16.231Z,8.15
2023-01-30T01:38:47.016Z,7.25
2023-01-30T01:41:17.506Z,8.18
2023-01-30T01:44:02.666Z,8.68
2023-01-30T01:46:38.893Z,8.65
2023-01-30T01:49:15.777Z,8.27
2023-01-30T01:52:05.240Z,7.57
2023-01-30T01:54:41.591Z,8.70
2023-01-30T01:57:18.299Z,8.77
2023-01-30T02:00:05.654Z,8.18
2023-01-30T02:02:49.671Z,8.45
2023-01-30T02:05:20.640Z,8.20
2023-01-30T02:07:53.403Z,7.88
2023-01-30T02:10:32.683Z,8.35
2023-01-30T02:12:59.587Z,8.95
2023-01-30T02:15:26.550Z,8.30
2023-01-30T02:17:54.911Z,8.98
2023-01-30T02:20:38.199Z,8.32
2023-01-30T02:23:40.637Z,8.10
2023-01-30T02:26:40.950Z,8.50
2023-01-30T02:29:33.033Z,8.05
2023-01-30T02:32:16.547Z,8.23
2023-01-30T02:35:02.612Z,7.75
2023-01-30T02:38:36.409Z,8.30
2023-01-30T02:41:15.438Z,8.43
2023-01-30T02:44:13.159Z,9.55
2023-01-30T02:47:07.514Z,9.40
2023-01-30T02:49:53.108Z,8.55
2023-01-30T02:52:22.337Z,8.05
2023-01-30T02:54:49.203Z,8.32
2023-01-30T02:57:27.296Z,8.73
2023-01-30T03:00:04.071Z,8.90
2023-01-30T03:03:07.081Z,7.85
2023-01-30T03:05:51.123Z,7.95
2023-01-30T03:08:57.842Z,7.47
2023-01-30T03:11:32.272Z,8.52
2023-01-30T03:14:27.333Z,6.65
2023-01-30T03:16:58.133Z,7.63
2023-01-30T03:19:28.171Z,7.82
2023-01-30T03:21:55.072Z,7.50
2023-01-30T03:24:22.117Z,7.95
2023-01-30T03:27:00.577Z,7.88
2023-01-30T03:29:27.493Z,7.15
2023-01-30T03:31:55.182Z,7.28
2023-01-30T03:34:22.049Z,7.40
2023-01-30T03:36:49.779Z,6.75
2023-01-30T03:39:16.754Z,7.22
2023-01-30T03:41:43.891Z,7.10
2023-01-30T03:44:10.771Z,6.85
2023-01-30T03:46:39.290Z,6.75
2023-01-30T03:49:06.169Z,6.50
2023-01-30T03:51:33.700Z,7.28
2023-01-30T03:54:01.404Z,7.10
2023-01-30T03:56:30.393Z,6.82
2023-01-30T03:58:57.639Z,6.85
2023-01-30T04:01:33.972Z,6.28
2023-01-30T04:04:01.908Z,6.93
2023-01-30T04:06:28.917Z,6.50
2023-01-30T04:08:56.889Z,6.65
2023-01-30T04:11:45.886Z,7.55
2023-01-30T04:14:13.047Z,6.78
2023-01-30T04:17:02.488Z,6.80
2023-01-30T04:19:54.299Z,6.57
2023-01-30T04:22:21.252Z,6.80
2023-01-30T04:24:48.598Z,6.90
2023-01-30T04:27:15.491Z,6.80
2023-01-30T04:29:59.799Z,7.18
2023-01-30T04:32:27.413Z,6.80
2023-01-30T04:34:54.451Z,6.90
2023-01-30T04:37:22.358Z,7.50
2023-01-30T04:39:49.662Z,7.53
2023-01-30T04:42:16.982Z,6.80
2023-01-30T04:44:57.354Z,6.93
2023-01-30T04:47:27.973Z,7.03
2023-01-30T04:49:54.899Z,7.38
2023-01-30T04:52:22.403Z,7.45
2023-01-30T04:54:49.306Z,7.70
2023-01-30T04:57:17.972Z,6.63
2023-01-30T04:59:44.852Z,6.72
2023-01-30T05:02:14.496Z,6.85
2023-01-30T05:04:41.515Z,7.07
2023-01-30T05:07:08.843Z,7.18
2023-01-30T05:09:35.673Z,7.15
2023-01-30T05:12:02.675Z,6.53
2023-01-30T05:14:29.520Z,6.70
2023-01-30T05:16:56.645Z,6.55
2023-01-30T05:19:23.557Z,7.57
2023-01-30T05:21:50.432Z,7.95
2023-01-30T05:24:17.368Z,6.60
2023-01-30T05:26:44.277Z,6.75
2023-01-30T05:29:11.301Z,6.68
2023-01-30T05:31:38.798Z,7.00
2023-01-30T05:34:05.749Z,6.47
2023-01-30T05:36:32.733Z,6.88
2023-01-30T05:38:59.658Z,6.65
2023-01-30T05:41:26.573Z,7.10
2023-01-30T05:43:53.539Z,6.50
2023-01-30T05:46:20.543Z,7.28
2023-01-30T05:48:47.875Z,6.75
2023-01-30T05:51:21.435Z,7.05
2023-01-30T05:53:54.710Z,7.63
2023-01-30T05:56:23.041Z,7.45
2023-01-30T05:58:54.984Z,7.55
2023-01-30T06:01:23.587Z,7.35
2023-01-30T06:03:51.038Z,7.57
2023-01-30T06:06:18.520Z,7.28
2023-01-30T06:08:45.983Z,7.32
2023-01-30T06:11:18.133Z,7.70
2023-01-30T06:13:45.393Z,7.65
2023-01-30T06:16:15.878Z,7.50
2023-01-30T06:18:43.051Z,7.13
2023-01-30T06:21:10.495Z,7.28
2023-01-30T06:23:38.837Z,7.03
2023-01-30T06:26:09.092Z,7.40
2023-01-30T06:28:38.446Z,7.05
2023-01-30T06:31:09.290Z,7.82
2023-01-30T06:33:36.861Z,8.98
2023-01-30T06:36:04.043Z,8.05
2023-01-30T06:38:31.060Z,8.18
2023-01-30T06:40:57.938Z,8.10
2023-01-30T06:43:25.034Z,7.28
2023-01-30T06:45:51.987Z,6.95
2023-01-30T06:48:19.623Z,7.05
2023-01-30T06:50:50.456Z,7.13
2023-01-30T06:53:17.628Z,7.18
2023-01-30T06:55:44.624Z,6.65
2023-01-30T06:58:14.610Z,7.65
2023-01-30T07:00:50.494Z,7.28
2023-01-30T07:03:20.810Z,7.18
2023-01-30T07:05:48.171Z,6.90
2023-01-30T07:08:16.509Z,7.45
2023-01-30T07:10:44.985Z,7.45
2023-01-30T07:13:13.095Z,6.97
2023-01-30T07:15:40.223Z,7.47
2023-01-30T07:18:07.214Z,7.80
2023-01-30T07:20:34.347Z,7.20
2023-01-30T07:23:04.853Z,7.30
2023-01-30T07:25:31.799Z,7.40
2023-01-30T07:28:02.610Z,7.25
2023-01-30T07:30:39.065Z,7.22
2023-01-30T07:33:06.865Z,6.50
2023-01-30T07:35:36.188Z,7.18
2023-01-30T07:38:05.391Z,7.00
2023-01-30T07:40:37.783Z,6.45
2023-01-30T07:43:08.684Z,7.13
2023-01-30T07:45:47.968Z,5.57
2023-01-30T07:48:19.068Z,5.00
2023-01-30T07:50:46.973Z,6.30
2023-01-30T07:53:16.729Z,5.60
2023-01-30T07:55:44.234Z,5.65
2023-01-30T07:58:16.313Z,5.40
2023-01-30T08:00:45.492Z,5.25
2023-01-30T08:03:17.272Z,5.38
2023-01-30T08:05:47.006Z,4.78
2023-01-30T08:08:18.536Z,4.80
2023-01-30T08:10:58.283Z,4.72
2023-01-30T08:13:32.874Z,4.80
2023-01-30T08:16:16.200Z,5.85
2023-01-30T08:19:35.189Z,4.80
2023-01-30T08:22:23.012Z,4.93
2023-01-30T08:24:55.455Z,4.68
2023-01-30T08:27:23.267Z,5.07
2023-01-30T08:29:51.243Z,4.68
2023-01-30T08:32:18.418Z,5.00
2023-01-30T08:34:45.324Z,4.68
2023-01-30T08:37:15.202Z,4.63
2023-01-30T08:39:42.109Z,4.25
2023-01-30T08:42:09.016Z,4.28
2023-01-30T08:44:44.179Z,4.50
2023-01-30T08:47:11.149Z,4.45
2023-01-30T08:49:38.705Z,4.78
2023-01-30T08:52:37.400Z,4.32
2023-01-30T08:58:52.481Z,4.00
2023-01-30T09:01:28.359Z,4.05
2023-01-30T09:04:03.587Z,3.30
2023-01-30T09:06:31.146Z,2.88
2023-01-30T09:09:03.730Z,3.28
2023-01-30T09:11:31.030Z,3.53
2023-01-30T09:13:58.171Z,3.05
2023-01-30T09:16:25.138Z,3.30
2023-01-30T09:18:52.150Z,2.83
2023-01-30T09:21:19.613Z,2.85
2023-01-30T09:23:46.882Z,2.90
2023-01-30T09:26:14.421Z,2.50
2023-01-30T09:28:45.109Z,2.78
2023-01-30T09:31:12.985Z,2.90
2023-01-30T09:33:40.155Z,2.50
2023-01-30T09:36:07.991Z,2.53
2023-01-30T09:38:34.951Z,2.30
2023-01-30T09:41:30.464Z,2.55
2023-01-30T09:44:19.919Z,2.40
2023-01-30T09:47:11.916Z,2.20
2023-01-30T09:49:58.493Z,2.10
2023-01-30T09:53:01.798Z,2.40
2023-01-30T09:55:33.857Z,2.25
2023-01-30T09:58:01.627Z,2.65
2023-01-30T10:00:44.251Z,2.75
2023-01-30T10:03:40.916Z,2.33
2023-01-30T10:06:16.466Z,2.25
2023-01-30T10:09:16.214Z,2.10
2023-01-30T10:11:53.091Z,2.53
2023-01-30T10:14:45.511Z,2.25
2023-01-30T10:17:42.829Z,2.13
2023-01-30T10:20:34.779Z,1.80
2023-01-30T10:24:29.426Z,1.80
2023-01-30T10:26:59.141Z,1.83
2023-01-30T10:29:38.965Z,1.58
2023-01-30T10:32:19.979Z,1.73
2023-01-30T10:34:55.193Z,1.83
2023-01-30T10:37:42.532Z,1.70
2023-01-30T10:40:54.488Z,1.83
2023-01-30T10:43:34.628Z,1.52
2023-01-30T10:46:11.152Z,1.80
2023-01-30T10:49:02.079Z,1.70
2023-01-30T10:51:55.546Z,1.90
2023-01-30T10:54:28.853Z,1.63
2023-01-30T10:57:25.044Z,1.58
2023-01-30T11:00:08.274Z,2.08
2023-01-30T11:03:22.650Z,2.55
2023-01-30T11:05:54.609Z,3.00
2023-01-30T11:08:35.102Z,2.20
2023-01-30T11:11:26.230Z,2.00
2023-01-30T11:14:07.367Z,2.05
2023-01-30T11:16:54.918Z,1.77
2023-01-30T11:19:42.202Z,1.60
2023-01-30T11:22:15.385Z,1.60
2023-01-30T11:24:45.911Z,1.70
2023-01-30T11:27:28.876Z,1.95
2023-01-30T11:30:19.773Z,1.40
2023-01-30T11:32:49.786Z,1.77
2023-01-30T11:35:29.825Z,1.20
2023-01-30T11:38:21.636Z,1.75
2023-01-30T11:40:48.684Z,1.77
2023-01-30T11:43:15.727Z,1.80
2023-01-30T11:45:48.637Z,1.90
2023-01-30T11:48:33.102Z,2.45
2023-01-30T11:51:13.486Z,2.47
2023-01-30T11:54:02.110Z,2.33
2023-01-30T11:56:58.034Z,2.55
2023-01-30T12:02:16.370Z,2.25
2023-01-30T12:04:45.767Z,2.42
2023-01-30T12:07:36.812Z,2.10
2023-01-30T12:10:42.684Z,2.00
2023-01-30T12:13:39.197Z,2.20
2023-01-30T12:16:35.453Z,2.00
2023-01-30T12:19:24.527Z,2.42
2023-01-30T12:22:04.902Z,2.53
2023-01-30T12:25:00.556Z,2.45
2023-01-30T12:33:07.786Z,2.20
2023-01-30T12:35:58.361Z,2.30
2023-01-30T12:38:49.980Z,2.05
2023-01-30T12:41:43.886Z,2.05
2023-01-30T12:44:44.777Z,1.98
2023-01-30T12:47:40.819Z,2.10
2023-01-30T12:53:31.602Z,1.73
2023-01-30T12:56:31.888Z,2.13
2023-01-30T12:59:31.858Z,2.28
2023-01-30T13:02:25.468Z,2.22
2023-01-30T13:05:21.653Z,1.92
2023-01-30T13:11:16.275Z,3.13
2023-01-30T13:14:08.024Z,2.17
2023-01-30T13:17:03.555Z,2.80
2023-01-30T13:20:13.568Z,2.22
2023-01-30T13:23:15.165Z,2.38
2023-01-30T13:26:13.125Z,2.30
2023-01-30T13:28:57.535Z,2.22
2023-01-30T13:31:31.094Z,2.35
2023-01-30T13:34:20.521Z,1.90
2023-01-30T13:37:01.095Z,2.33
2023-01-30T13:39:47.817Z,1.80
2023-01-30T13:42:30.473Z,1.83
2023-01-30T13:45:01.181Z,2.00
2023-01-30T13:47:55.691Z,2.22
2023-01-30T13:50:36.670Z,2.38
2023-01-30T13:53:50.050Z,2.20
2023-01-30T13:57:15.896Z,1.95
2023-01-30T14:00:06.132Z,1.95
2023-01-30T14:03:04.393Z,1.75
2023-01-30T14:06:01.152Z,1.63
2023-01-30T14:08:44.729Z,1.92
2023-01-30T14:11:45.034Z,1.55
2023-01-30T14:14:33.651Z,1.75
2023-01-30T14:17:16.291Z,1.42
2023-01-30T14:20:07.886Z,1.80
2023-01-30T14:22:52.018Z,1.77
2023-01-30T14:25:38.299Z,2.08
2023-01-30T14:28:05.281Z,1.85
2023-01-30T14:30:32.219Z,2.03
2023-01-30T14:33:02.643Z,1.65
2023-01-30T14:35:31.830Z,1.83
2023-01-30T14:38:13.345Z,2.20
2023-01-30T14:41:00.092Z,1.90
2023-01-30T14:43:42.285Z,1.77
2023-01-30T14:46:18.220Z,1.73
2023-01-30T14:48:50.880Z,2.08
2023-01-30T14:51:45.347Z,1.80
2023-01-30T14:54:13.032Z,2.03
2023-01-30T14:56:50.994Z,2.28
2023-01-30T14:59:17.852Z,1.60
2023-01-30T15:02:06.104Z,1.40
2023-01-30T15:05:09.388Z,1.73
2023-01-30T15:07:46.848Z,1.48
2023-01-30T15:10:19.965Z,1.70
2023-01-30T15:13:21.278Z,1.95
2023-01-30T15:15:54.502Z,1.70
2023-01-30T15:18:44.404Z,2.20
2023-01-30T15:21:37.254Z,2.10
2023-01-30T15:24:33.861Z,2.10
2023-01-30T15:27:13.228Z,2.33
2023-01-30T15:29:45.915Z,2.10
2023-01-30T15:32:23.447Z,1.92
2023-01-30T15:34:57.478Z,2.58
2023-01-30T15:37:47.444Z,2.30
2023-01-30T15:40:20.571Z,1.70
2023-01-30T15:42:54.579Z,2.03
2023-01-30T15:45:46.096Z,1.40
2023-01-30T15:48:28.221Z,2.00
2023-01-30T15:51:00.004Z,2.03
2023-01-30T15:53:37.392Z,1.98
2023-01-30T15:56:10.239Z,1.75
2023-01-30T15:58:43.305Z,2.00
2023-01-30T16:01:17.842Z,2.15
2023-01-30T16:03:45.073Z,2.33
2023-01-30T16:06:34.537Z,2.50
2023-01-30T16:09:21.371Z,2.30
2023-01-30T16:11:49.094Z,2.20
2023-01-30T16:14:20.063Z,2.30
2023-01-30T16:17:06.931Z,2.95
2023-01-30T16:19:37.824Z,2.63
2023-01-30T16:22:16.755Z,2.63
2023-01-30T16:24:54.372Z,2.25
2023-01-30T16:27:29.726Z,3.15
2023-01-30T16:30:07.648Z,3.17
2023-01-30T16:32:36.277Z,3.00
2023-01-30T16:35:27.106Z,2.42
2023-01-30T16:37:57.918Z,2.90
2023-01-30T16:40:31.857Z,2.45
2023-01-30T16:43:16.856Z,1.98
2023-01-30T16:45:53.006Z,2.03
2023-01-30T16:48:19.929Z,2.08
2023-01-30T16:51:08.623Z,2.50
2023-01-30T16:53:35.846Z,2.22
2023-01-30T16:56:09.833Z,2.20
2023-01-30T16:58:38.762Z,1.92
2023-01-30T17:01:08.888Z,2.08
2023-01-30T17:03:40.910Z,2.15
2023-01-30T17:06:20.983Z,1.95
2023-01-30T17:08:54.458Z,1.77
2023-01-30T17:11:40.411Z,2.88
2023-01-30T17:14:30.601Z,2.58
2023-01-30T17:17:01.624Z,2.65
2023-01-30T17:19:28.525Z,2.47
2023-01-30T17:21:58.022Z,2.47
2023-01-30T17:24:26.132Z,2.25
2023-01-30T17:27:00.308Z,2.78
2023-01-30T17:29:41.895Z,2.22
2023-01-30T17:32:15.890Z,2.30
2023-01-30T17:34:43.050Z,2.55
2023-01-30T17:37:20.032Z,3.00
2023-01-30T17:39:47.467Z,3.53
2023-01-30T17:42:21.864Z,1.98
2023-01-30T17:44:49.694Z,2.33
2023-01-30T17:47:16.756Z,2.50
2023-01-30T17:49:43.836Z,1.80
2023-01-30T17:52:14.078Z,1.83
2023-01-30T17:54:41.149Z,1.80
2023-01-30T17:57:12.438Z,2.58
2023-01-30T17:59:39.391Z,2.58
2023-01-30T18:02:10.044Z,2.30
2023-01-30T18:04:36.951Z,2.35
2023-01-30T18:07:09.554Z,2.47
2023-01-30T18:09:36.608Z,2.40
2023-01-30T18:12:03.738Z,2.40
2023-01-30T18:14:30.650Z,2.00
2023-01-30T18:17:00.441Z,2.05
2023-01-30T18:19:29.531Z,2.47
2023-01-30T18:21:58.233Z,1.88
2023-01-30T18:24:25.321Z,2.08
2023-01-30T18:26:52.406Z,2.35
2023-01-30T18:29:20.317Z,1.95
2023-01-30T18:31:47.613Z,1.77
2023-01-30T18:34:14.879Z,1.83
2023-01-30T18:36:41.940Z,2.35
2023-01-30T18:39:10.271Z,2.22
2023-01-30T18:41:37.832Z,1.75
2023-01-30T18:44:09.055Z,1.63
2023-01-30T18:46:36.625Z,2.90
2023-01-30T18:49:03.788Z,1.48
2023-01-30T18:51:34.099Z,1.60
2023-01-30T18:54:04.197Z,2.13
2023-01-30T18:56:33.867Z,1.80
2023-01-30T18:59:04.531Z,1.73
2023-01-30T19:01:36.652Z,1.92
2023-01-30T19:04:10.441Z,2.13
2023-01-30T19:06:42.001Z,1.88
2023-01-30T19:09:15.770Z,1.67
2023-01-30T19:12:04.303Z,1.88
2023-01-30T19:14:31.725Z,1.90
2023-01-30T19:16:59.123Z,1.95
2023-01-30T19:19:30.067Z,2.63
2023-01-30T19:21:57.201Z,2.17
2023-01-30T19:24:27.344Z,2.05
2023-01-30T19:26:54.904Z,2.25
2023-01-30T19:29:22.356Z,2.75
2023-01-30T19:31:50.230Z,2.10
2023-01-30T19:34:19.023Z,2.42
2023-01-30T19:36:47.923Z,2.10
2023-01-30T19:39:15.198Z,3.70
2023-01-30T19:41:42.579Z,2.10
2023-01-30T19:44:12.451Z,1.95
2023-01-30T19:46:40.525Z,2.10
2023-01-30T19:49:07.939Z,1.77
2023-01-30T19:51:35.850Z,1.83
2023-01-30T19:54:07.152Z,2.60
2023-01-30T19:56:36.704Z,2.75
2023-01-30T19:59:04.804Z,2.00
2023-01-30T20:01:37.720Z,2.70
2023-01-30T20:04:05.498Z,2.22
2023-01-30T20:06:35.215Z,2.10
2023-01-30T20:09:08.260Z,3.13
2023-01-30T20:11:40.339Z,2.30
2023-01-30T20:14:09.418Z,3.83
2023-01-30T20:16:37.601Z,2.70
2023-01-30T20:19:13.204Z,2.38
2023-01-30T20:21:41.845Z,2.20
2023-01-30T20:24:14.883Z,2.35
2023-01-30T20:26:45.305Z,3.03
2023-01-30T20:29:16.904Z,3.47
2023-01-30T20:31:44.481Z,2.47
2023-01-30T20:34:14.611Z,2.50
2023-01-30T20:36:41.870Z,2.72
2023-01-30T20:39:09.154Z,2.47
2023-01-30T20:41:37.898Z,2.08
2023-01-30T20:44:08.524Z,2.47
2023-01-30T20:46:41.460Z,2.03
2023-01-30T20:49:19.486Z,2.97
2023-01-30T20:51:50.290Z,1.95
2023-01-30T20:54:20.707Z,2.10
2023-01-30T20:56:51.203Z,2.13
2023-01-30T20:59:24.348Z,1.83
2023-01-30T21:01:52.836Z,2.13
2023-01-30T21:04:21.975Z,2.22
2023-01-30T21:06:49.062Z,2.15
2023-01-30T21:09:23.006Z,2.08
2023-01-30T21:11:53.247Z,2.10
2023-01-30T21:14:20.305Z,1.92
2023-01-30T21:16:48.133Z,1.77
2023-01-30T21:19:17.366Z,2.08
2023-01-30T21:21:51.636Z,2.38
2023-01-30T21:24:24.221Z,1.70
2023-01-30T21:26:52.031Z,2.00
2023-01-30T21:29:23.422Z,1.95
2023-01-30T21:31:51.091Z,1.77
2023-01-30T21:34:18.611Z,2.17
2023-01-30T21:37:05.582Z,2.53
2023-01-30T21:39:51.382Z,2.42
2023-01-30T21:42:37.806Z,2.78
2023-01-30T21:45:06.921Z,2.13
2023-01-30T21:47:33.930Z,2.13
2023-01-30T21:50:00.896Z,2.58
2023-01-30T21:52:27.795Z,3.03
2023-01-30T21:54:55.172Z,2.53
2023-01-30T21:57:22.056Z,2.17
2023-01-30T21:59:49.012Z,3.63
2023-01-30T22:02:15.946Z,2.05
2023-01-30T22:04:42.863Z,3.25
2023-01-30T22:07:09.823Z,2.85
2023-01-30T22:09:36.790Z,2.28
2023-01-30T22:12:04.044Z,2.22
2023-01-30T22:14:33.210Z,2.80
2023-01-30T22:17:00.252Z,2.47
2023-01-30T22:19:27.244Z,2.92
2023-01-30T22:21:54.200Z,2.55
2023-01-30T22:24:21.181Z,2.40
2023-01-30T22:26:48.050Z,1.85
2023-01-30T22:29:17.952Z,1.98
2023-01-30T22:31:45.147Z,1.95
2023-01-30T22:34:12.049Z,1.92
2023-01-30T22:36:39.538Z,2.17
2023-01-30T22:39:06.591Z,2.63
2023-01-30T22:41:36.214Z,3.15
2023-01-30T22:44:07.633Z,2.15
2023-01-30T22:46:39.641Z,2.33
2023-01-30T22:49:09.466Z,2.10
2023-01-30T22:51:41.138Z,2.08
2023-01-30T22:54:15.816Z,1.80
2023-01-30T22:56:48.806Z,2.10
2023-01-30T22:59:15.964Z,2.00
2023-01-30T23:01:47.675Z,3.33
2023-01-30T23:04:18.747Z,2.92
2023-01-30T23:06:47.254Z,2.40
2023-01-30T23:09:19.094Z,2.33
2023-01-30T23:12:12.773Z,2.03
2023-01-30T23:14:40.577Z,2.80
2023-01-30T23:17:27.442Z,2.00
2023-01-30T23:19:55.544Z,3.67
2023-01-30T23:22:23.089Z,2.08
2023-01-30T23:24:51.138Z,2.92
2023-01-30T23:27:18.799Z,2.38
2023-01-30T23:29:45.810Z,2.50
2023-01-30T23:32:12.995Z,2.20
2023-01-30T23:34:40.136Z,2.40
2023-01-30T23:37:07.079Z,2.20
2023-01-30T23:39:34.040Z,1.98
2023-01-30T23:42:00.900Z,2.92
2023-01-30T23:44:27.784Z,2.33
2023-01-30T23:46:54.817Z,2.60
2023-01-30T23:49:21.819Z,2.50
2023-01-30T23:51:48.754Z,2.67
2023-01-30T23:54:15.683Z,2.15
2023-01-30T23:56:44.861Z,2.30
2023-01-30T23:59:12.615Z,2.47
